createdAt,value
2019-05-03T00:02:28.869Z,8.37
2019-05-03T00:05:13.700Z,8.23
2019-05-03T00:07:45.844Z,8.37
2019-05-03T00:10:19.122Z,9.70
2019-05-03T00:12:52.823Z,8.37
2019-05-03T00:15:45.100Z,8.80
2019-05-03T00:18:15.450Z,8.30
2019-05-03T00:20:46.395Z,8.53
2019-05-03T00:23:19.644Z,8.83
2019-05-03T00:25:52.261Z,8.57
2019-05-03T00:28:23.889Z,9.17
2019-05-03T00:30:54.202Z,9.43
2019-05-03T00:33:24.666Z,9.30
2019-05-03T00:36:14.358Z,8.60
2019-05-03T00:38:45.818Z,9.30
2019-05-03T00:41:16.114Z,8.73
2019-05-03T00:43:46.445Z,8.60
2019-05-03T00:46:16.763Z,9.27
2019-05-03T00:48:48.180Z,9.47
2019-05-03T00:51:22.382Z,9.70
2019-05-03T00:53:53.228Z,9.00
2019-05-03T00:56:23.639Z,9.83
2019-05-03T00:58:57.354Z,9.07
2019-05-03T01:01:27.620Z,9.40
2019-05-03T01:03:58.261Z,9.43
2019-05-03T01:06:28.587Z,9.87
2019-05-03T01:08:59.791Z,9.50
2019-05-03T01:11:30.115Z,9.93
2019-05-03T01:14:02.259Z,9.43
2019-05-03T01:16:32.792Z,8.87
2019-05-03T01:19:05.115Z,9.20
2019-05-03T01:21:35.437Z,9.40
2019-05-03T01:24:05.986Z,9.63
2019-05-03T01:26:36.466Z,9.40
2019-05-03T01:29:06.824Z,8.97
2019-05-03T01:31:46.974Z,9.43
2019-05-03T01:34:17.768Z,8.87
2019-05-03T01:36:48.089Z,9.57
2019-05-03T01:39:18.446Z,10.77
2019-05-03T01:41:48.786Z,9.40
2019-05-03T01:44:19.148Z,9.77
2019-05-03T01:46:54.191Z,10.73
2019-05-03T01:49:31.957Z,11.13
2019-05-03T01:52:12.739Z,10.70
2019-05-03T01:54:43.475Z,10.13
2019-05-03T01:57:13.803Z,10.10
2019-05-03T01:59:44.197Z,10.47
2019-05-03T02:02:39.466Z,10.87
2019-05-03T02:05:42.866Z,11.07
2019-05-03T02:08:14.545Z,9.73
2019-05-03T02:10:48.851Z,10.00
2019-05-03T02:13:19.147Z,11.43
2019-05-03T02:15:49.542Z,11.20
2019-05-03T02:18:22.316Z,10.97
2019-05-03T02:20:52.920Z,10.87
2019-05-03T02:23:24.972Z,10.70
2019-05-03T02:25:59.238Z,10.57
2019-05-03T02:28:29.660Z,10.63
2019-05-03T02:31:03.234Z,10.63
2019-05-03T02:33:33.029Z,11.10
2019-05-03T02:36:04.011Z,10.47
2019-05-03T02:38:37.229Z,9.73
2019-05-03T02:41:08.005Z,10.37
2019-05-03T02:43:45.284Z,11.30
2019-05-03T02:46:45.424Z,10.23
2019-05-03T02:49:31.522Z,11.07
2019-05-03T02:52:01.878Z,10.50
2019-05-03T02:54:32.220Z,10.57
2019-05-03T02:57:02.575Z,10.23
2019-05-03T02:59:36.163Z,10.73
2019-05-03T03:02:06.688Z,12.30
2019-05-03T03:04:37.278Z,11.67
2019-05-03T03:07:08.633Z,10.33
2019-05-03T03:09:40.614Z,10.47
2019-05-03T03:12:11.234Z,10.87
2019-05-03T03:14:42.308Z,10.67
2019-05-03T03:17:14.930Z,11.50
2019-05-03T03:19:48.704Z,10.07
2019-05-03T03:22:20.774Z,11.30
2019-05-03T03:24:55.916Z,11.90
2019-05-03T03:27:29.649Z,11.07
2019-05-03T03:30:28.953Z,10.97
2019-05-03T03:32:58.311Z,11.40
2019-05-03T03:37:55.984Z,11.83
2019-05-03T03:40:26.125Z,11.47
2019-05-03T03:42:59.928Z,12.30
2019-05-03T03:45:30.520Z,11.83
2019-05-03T03:48:02.026Z,11.67
2019-05-03T03:50:36.002Z,11.97
2019-05-03T03:53:10.421Z,10.90
2019-05-03T03:55:45.606Z,11.67
2019-05-03T03:58:21.975Z,11.70
2019-05-03T04:00:51.564Z,11.73
2019-05-03T04:03:22.298Z,11.60
2019-05-03T04:05:55.396Z,12.83
2019-05-03T04:08:25.337Z,13.33
2019-05-03T04:10:56.397Z,12.97
2019-05-03T04:13:27.716Z,13.17
2019-05-03T04:16:09.225Z,12.40
2019-05-03T04:19:01.839Z,11.77
2019-05-03T04:21:35.827Z,12.47
2019-05-03T04:24:06.005Z,12.57
2019-05-03T04:26:37.101Z,11.77
2019-05-03T04:29:07.901Z,12.17
2019-05-03T04:31:38.268Z,13.23
2019-05-03T04:34:11.468Z,11.93
2019-05-03T04:36:45.985Z,13.13
2019-05-03T04:39:20.279Z,12.80
2019-05-03T04:41:47.943Z,13.20
2019-05-03T04:44:21.393Z,13.30
2019-05-03T04:46:55.071Z,13.50
2019-05-03T04:49:26.749Z,13.43
2019-05-03T04:51:57.114Z,14.53
2019-05-03T04:54:41.858Z,13.60
2019-05-03T04:57:17.602Z,12.50
2019-05-03T04:59:45.909Z,13.47
2019-05-03T05:02:16.358Z,14.10
2019-05-03T05:04:46.626Z,12.43
2019-05-03T05:07:16.998Z,14.17
2019-05-03T05:09:47.617Z,15.60
2019-05-03T05:12:20.793Z,14.10
2019-05-03T05:14:51.351Z,14.00
2019-05-03T05:17:41.108Z,14.20
2019-05-03T05:20:18.347Z,13.47
2019-05-03T05:22:48.926Z,12.57
2019-05-03T05:25:21.683Z,12.63
2019-05-03T05:28:04.594Z,12.90
2019-05-03T05:30:35.375Z,12.60
2019-05-03T05:33:10.440Z,13.47
2019-05-03T05:35:40.712Z,11.90
2019-05-03T05:38:12.680Z,12.37
2019-05-03T05:40:45.004Z,11.93
2019-05-03T05:43:15.280Z,12.53
2019-05-03T05:45:45.961Z,13.53
2019-05-03T05:48:21.210Z,12.87
2019-05-03T05:50:51.967Z,12.37
2019-05-03T05:53:22.519Z,13.57
2019-05-03T05:56:10.436Z,13.13
2019-05-03T05:58:49.051Z,15.20
2019-05-03T06:01:26.074Z,12.60
2019-05-03T06:04:06.307Z,12.50
2019-05-03T06:06:46.284Z,13.93
2019-05-03T06:09:30.355Z,12.80
2019-05-03T06:12:21.022Z,13.97
2019-05-03T06:14:58.068Z,15.00
2019-05-03T06:17:34.717Z,14.93
2019-05-03T06:20:24.603Z,13.93
2019-05-03T06:23:02.985Z,13.10
2019-05-03T06:25:37.048Z,13.30
2019-05-03T06:28:21.030Z,13.90
2019-05-03T06:31:02.223Z,12.97
2019-05-03T06:33:34.618Z,14.07
2019-05-03T06:36:04.980Z,12.80
2019-05-03T06:38:38.341Z,14.00
2019-05-03T06:41:12.324Z,14.03
2019-05-03T06:43:47.157Z,14.07
2019-05-03T06:46:18.114Z,12.93
2019-05-03T06:48:47.451Z,13.40
2019-05-03T06:51:20.171Z,12.23
2019-05-03T06:53:50.709Z,12.23
2019-05-03T06:56:24.981Z,12.73
2019-05-03T06:58:55.618Z,11.17
2019-05-03T07:01:38.938Z,12.10
2019-05-03T07:04:24.406Z,13.37
2019-05-03T07:07:13.087Z,11.43
2019-05-03T07:09:48.420Z,11.00
2019-05-03T07:12:19.960Z,13.23
2019-05-03T07:14:50.492Z,11.03
2019-05-03T07:17:20.898Z,11.77
2019-05-03T07:19:51.174Z,10.37
2019-05-03T07:22:21.566Z,10.73
2019-05-03T07:24:51.858Z,10.20
2019-05-03T07:27:22.149Z,8.47
2019-05-03T07:29:52.783Z,8.13
2019-05-03T07:32:24.657Z,8.47
2019-05-03T07:34:58.305Z,9.93
2019-05-03T07:37:28.911Z,7.90
2019-05-03T07:40:01.056Z,6.93
2019-05-03T07:42:34.586Z,8.43
2019-05-03T07:45:05.800Z,6.80
2019-05-03T07:47:36.086Z,6.10
2019-05-03T07:50:06.844Z,5.70
2019-05-03T07:52:37.490Z,5.60
2019-05-03T07:55:08.131Z,5.53
2019-05-03T07:57:47.730Z,4.73
2019-05-03T08:00:21.946Z,5.53
2019-05-03T08:02:52.341Z,6.10
2019-05-03T08:05:24.563Z,6.10
2019-05-03T08:07:55.425Z,5.67
2019-05-03T08:10:27.720Z,4.20
2019-05-03T08:12:58.007Z,4.73
2019-05-03T08:15:28.369Z,5.60
2019-05-03T08:17:58.749Z,4.30
2019-05-03T08:20:29.461Z,5.30
2019-05-03T08:23:00.218Z,4.93
2019-05-03T08:25:30.575Z,4.97
2019-05-03T08:28:00.779Z,4.83
2019-05-03T08:30:47.468Z,4.50
2019-05-03T08:33:39.746Z,6.50
2019-05-03T08:36:10.058Z,5.03
2019-05-03T08:38:40.315Z,6.73
2019-05-03T08:41:14.607Z,5.87
2019-05-03T08:43:44.841Z,5.80
2019-05-03T08:46:15.570Z,6.50
2019-05-03T08:48:45.835Z,5.20
2019-05-03T08:51:16.172Z,6.67
2019-05-03T08:53:46.417Z,5.33
2019-05-03T08:56:19.845Z,5.70
2019-05-03T08:58:50.486Z,5.17
2019-05-03T09:01:20.833Z,5.37
2019-05-03T09:03:51.191Z,6.10
2019-05-03T09:06:21.543Z,8.00
2019-05-03T09:08:54.988Z,7.87
2019-05-03T09:11:33.312Z,7.00
2019-05-03T09:14:00.253Z,6.63
2019-05-03T09:16:32.789Z,6.20
2019-05-03T09:19:03.006Z,5.90
2019-05-03T09:21:34.753Z,4.50
2019-05-03T09:24:08.331Z,4.63
2019-05-03T09:26:39.444Z,4.93
2019-05-03T09:29:09.722Z,5.60
2019-05-03T09:31:40.975Z,5.13
2019-05-03T09:34:11.226Z,5.83
2019-05-03T09:36:41.519Z,5.27
2019-05-03T09:39:12.071Z,5.97
2019-05-03T09:41:44.892Z,4.70
2019-05-03T09:44:16.171Z,4.47
2019-05-03T09:46:46.495Z,4.80
2019-05-03T09:49:18.254Z,4.37
2019-05-03T09:51:48.901Z,4.37
2019-05-03T09:54:25.525Z,3.90
2019-05-03T09:57:02.645Z,4.40
2019-05-03T09:59:35.011Z,6.60
2019-05-03T10:02:05.448Z,6.40
2019-05-03T10:04:36.795Z,4.27
2019-05-03T10:07:07.872Z,4.40
2019-05-03T10:09:38.151Z,4.73
2019-05-03T10:12:12.590Z,5.60
2019-05-03T10:14:45.066Z,4.73
2019-05-03T10:17:45.783Z,4.37
2019-05-03T10:20:16.428Z,4.33
2019-05-03T10:22:46.828Z,4.40
2019-05-03T10:25:17.351Z,5.67
2019-05-03T10:27:48.007Z,3.87
2019-05-03T10:30:26.105Z,5.00
2019-05-03T10:33:06.089Z,5.17
2019-05-03T10:35:39.075Z,5.13
2019-05-03T10:38:12.244Z,4.73
2019-05-03T10:40:42.528Z,5.80
2019-05-03T10:43:12.811Z,4.97
2019-05-03T10:45:45.692Z,5.43
2019-05-03T10:48:17.376Z,5.20
2019-05-03T10:50:50.749Z,6.53
2019-05-03T10:53:29.973Z,5.13
2019-05-03T10:56:24.530Z,5.93
2019-05-03T10:58:57.562Z,5.80
2019-05-03T11:01:38.531Z,5.93
2019-05-03T11:04:12.353Z,4.87
2019-05-03T11:06:45.757Z,4.57
2019-05-03T11:09:18.056Z,4.87
2019-05-03T11:11:48.453Z,4.90
2019-05-03T11:14:19.315Z,5.40
2019-05-03T11:16:49.923Z,5.07
2019-05-03T11:19:22.903Z,5.30
2019-05-03T11:21:54.776Z,5.70
2019-05-03T11:24:27.511Z,5.60
2019-05-03T11:27:00.209Z,5.73
2019-05-03T11:29:31.073Z,5.03
2019-05-03T11:32:20.858Z,5.03
2019-05-03T11:35:25.618Z,4.20
2019-05-03T11:38:05.322Z,5.00
2019-05-03T11:40:36.102Z,5.20
2019-05-03T11:43:06.740Z,5.50
2019-05-03T11:45:37.449Z,4.87
2019-05-03T11:48:08.320Z,4.70
2019-05-03T11:50:41.326Z,5.30
2019-05-03T11:53:14.655Z,4.83
2019-05-03T11:55:46.631Z,5.27
2019-05-03T11:58:27.068Z,5.53
2019-05-03T12:01:20.274Z,4.83
2019-05-03T12:03:57.681Z,4.60
2019-05-03T12:06:30.798Z,4.83
2019-05-03T12:09:01.410Z,4.60
2019-05-03T12:11:35.100Z,5.57
2019-05-03T12:14:11.733Z,5.70
2019-05-03T12:17:14.550Z,6.00
2019-05-03T12:19:24.176Z,5.17
2019-05-03T12:21:52.657Z,5.00
2019-05-03T12:24:24.149Z,6.50
2019-05-03T12:26:55.885Z,6.20
2019-05-03T12:29:26.694Z,5.77
2019-05-03T12:31:56.970Z,5.17
2019-05-03T12:34:27.226Z,5.37
2019-05-03T12:36:57.530Z,5.43
2019-05-03T12:39:30.589Z,5.10
2019-05-03T12:41:59.985Z,5.73
2019-05-03T12:44:30.375Z,5.50
2019-05-03T12:47:02.605Z,5.57
2019-05-03T12:49:33.090Z,5.37
2019-05-03T12:52:05.254Z,6.27
2019-05-03T12:54:36.976Z,5.60
2019-05-03T12:57:07.870Z,5.63
2019-05-03T12:59:59.806Z,5.27
2019-05-03T13:02:35.303Z,6.07
2019-05-03T13:05:05.982Z,6.43
2019-05-03T13:07:41.601Z,6.17
2019-05-03T13:10:12.192Z,7.47
2019-05-03T13:12:52.859Z,5.40
2019-05-03T13:15:16.376Z,6.03
2019-05-03T13:17:47.267Z,7.07
2019-05-03T13:20:21.005Z,7.10
2019-05-03T13:22:51.305Z,6.60
2019-05-03T13:25:21.665Z,7.00
2019-05-03T13:27:51.980Z,6.10
2019-05-03T13:30:22.392Z,6.37
2019-05-03T13:32:54.786Z,5.77
2019-05-03T13:35:25.668Z,5.30
2019-05-03T13:37:57.584Z,4.37
2019-05-03T13:40:28.035Z,5.13
2019-05-03T13:43:03.631Z,4.60
2019-05-03T13:45:30.510Z,5.20
2019-05-03T13:48:01.344Z,4.90
2019-05-03T13:50:31.977Z,6.30
2019-05-03T13:53:02.292Z,5.23
2019-05-03T13:55:32.614Z,5.13
2019-05-03T13:58:05.228Z,6.63
2019-05-03T14:00:36.122Z,5.43
2019-05-03T14:03:07.103Z,5.03
2019-05-03T14:05:37.387Z,4.77
2019-05-03T14:08:07.655Z,4.63
2019-05-03T14:10:38.229Z,4.17
2019-05-03T14:13:08.639Z,4.50
2019-05-03T14:15:38.938Z,4.70
2019-05-03T14:18:09.267Z,5.03
2019-05-03T14:21:05.027Z,5.53
2019-05-03T14:23:53.446Z,4.60
2019-05-03T14:26:24.572Z,4.97
2019-05-03T14:28:56.021Z,4.53
2019-05-03T14:31:26.312Z,4.80
2019-05-03T14:33:58.489Z,5.27
2019-05-03T14:36:28.806Z,5.37
2019-05-03T14:39:00.144Z,5.50
2019-05-03T14:41:30.404Z,4.73
2019-05-03T14:44:01.438Z,4.63
2019-05-03T14:46:33.295Z,4.93
2019-05-03T14:49:05.522Z,4.67
2019-05-03T14:51:36.246Z,5.07
2019-05-03T14:54:07.627Z,4.83
2019-05-03T14:56:59.541Z,5.13
2019-05-03T14:59:51.987Z,5.00
2019-05-03T15:02:42.562Z,7.73
2019-05-03T15:05:07.237Z,5.13
2019-05-03T15:07:40.393Z,5.03
2019-05-03T15:10:11.150Z,5.43
2019-05-03T15:12:41.739Z,5.13
2019-05-03T15:15:14.490Z,4.70
2019-05-03T15:17:45.776Z,6.40
2019-05-03T15:20:16.759Z,6.33
2019-05-03T15:22:47.427Z,6.37
2019-05-03T15:25:17.886Z,4.73
2019-05-03T15:27:48.618Z,4.07
2019-05-03T15:30:19.542Z,3.87
2019-05-03T15:32:57.612Z,3.00
2019-05-03T15:35:25.737Z,5.30
2019-05-03T15:37:55.950Z,4.60
2019-05-03T15:40:27.279Z,6.17
2019-05-03T15:43:11.823Z,5.50
2019-05-03T15:46:01.269Z,5.13
2019-05-03T15:48:35.763Z,5.07
2019-05-03T15:51:06.239Z,4.83
2019-05-03T15:53:36.569Z,4.70
2019-05-03T15:56:07.427Z,4.73
2019-05-03T15:58:39.535Z,5.60
2019-05-03T16:01:09.866Z,5.23
2019-05-03T16:03:40.505Z,5.70
2019-05-03T16:06:11.218Z,5.37
2019-05-03T16:08:41.879Z,5.10
2019-05-03T16:11:14.678Z,5.13
2019-05-03T16:16:40.152Z,5.77
2019-05-03T16:19:10.528Z,6.90
2019-05-03T16:21:40.872Z,5.93
2019-05-03T16:24:11.156Z,6.63
2019-05-03T16:26:59.944Z,6.17
2019-05-03T16:29:30.223Z,6.37
2019-05-03T16:32:00.588Z,6.23
2019-05-03T16:34:30.941Z,5.97
2019-05-03T16:37:01.856Z,6.40
2019-05-03T16:39:32.323Z,6.53
2019-05-03T16:42:04.230Z,6.83
2019-05-03T16:44:35.106Z,6.30
2019-05-03T16:47:07.234Z,6.27
2019-05-03T16:49:37.344Z,11.50
2019-05-03T16:52:07.760Z,8.80
2019-05-03T16:54:42.269Z,7.47
2019-05-03T16:57:14.857Z,5.83
2019-05-03T16:59:47.520Z,6.53
2019-05-03T17:02:19.382Z,6.63
2019-05-03T17:04:56.068Z,6.10
2019-05-03T17:07:35.384Z,6.10
2019-05-03T17:10:15.333Z,6.67
2019-05-03T17:12:46.321Z,5.83
2019-05-03T17:15:17.024Z,6.07
2019-05-03T17:17:47.483Z,6.73
2019-05-03T17:20:17.921Z,6.27
2019-05-03T17:22:48.299Z,5.83
2019-05-03T17:25:18.609Z,6.90
2019-05-03T17:27:49.213Z,6.77
2019-05-03T17:30:20.121Z,6.57
2019-05-03T17:32:50.832Z,6.70
2019-05-03T17:35:21.235Z,6.27
2019-05-03T17:37:51.610Z,5.73
2019-05-03T17:40:39.666Z,6.13
2019-05-03T17:43:15.731Z,6.20
2019-05-03T17:45:49.133Z,6.87
2019-05-03T17:48:19.446Z,6.77
2019-05-03T17:50:51.831Z,6.30
2019-05-03T17:53:54.837Z,7.17
2019-05-03T17:56:44.498Z,6.50
2019-05-03T17:59:25.763Z,6.00
2019-05-03T18:02:23.884Z,6.37
2019-05-03T18:05:17.291Z,5.97
2019-05-03T18:08:21.979Z,6.13
2019-05-03T18:10:59.212Z,6.87
2019-05-03T18:13:32.585Z,6.90
2019-05-03T18:16:04.928Z,6.00
2019-05-03T18:18:35.523Z,7.13
2019-05-03T18:21:06.287Z,7.43
2019-05-03T18:23:36.646Z,6.50
2019-05-03T18:26:07.278Z,7.10
2019-05-03T18:28:37.562Z,7.20
2019-05-03T18:31:08.803Z,5.60
2019-05-03T18:33:39.227Z,7.03
2019-05-03T18:36:11.133Z,6.60
2019-05-03T18:38:44.618Z,6.53
2019-05-03T18:41:14.999Z,6.70
2019-05-03T18:43:59.992Z,6.27
2019-05-03T18:46:44.578Z,7.40
2019-05-03T18:49:15.897Z,7.40
2019-05-03T18:51:49.219Z,7.43
2019-05-03T18:54:20.205Z,7.03
2019-05-03T18:56:50.726Z,7.77
2019-05-03T18:59:21.737Z,7.47
2019-05-03T19:01:52.083Z,7.30
2019-05-03T19:04:34.233Z,7.50
2019-05-03T19:07:06.666Z,9.10
2019-05-03T19:10:00.282Z,8.43
2019-05-03T19:12:46.212Z,7.97
2019-05-03T19:15:16.540Z,6.90
2019-05-03T19:18:04.360Z,7.57
2019-05-03T19:20:35.319Z,8.20
2019-05-03T19:23:05.852Z,7.60
2019-05-03T19:25:45.925Z,7.93
2019-05-03T19:28:08.324Z,7.23
2019-05-03T19:30:40.421Z,8.43
2019-05-03T19:33:12.679Z,7.77
2019-05-03T19:35:44.412Z,8.00
2019-05-03T19:38:16.979Z,8.37
2019-05-03T19:40:47.581Z,8.83
2019-05-03T19:43:17.892Z,8.50
2019-05-03T19:45:48.208Z,8.90
2019-05-03T19:48:18.509Z,10.00
2019-05-03T19:50:50.186Z,9.37
2019-05-03T19:53:39.545Z,11.03
2019-05-03T19:56:11.534Z,10.37
2019-05-03T19:58:41.717Z,10.27
2019-05-03T20:01:34.505Z,10.27
2019-05-03T20:04:15.401Z,9.37
2019-05-03T20:07:05.322Z,10.70
2019-05-03T20:09:37.130Z,11.80
2019-05-03T20:12:07.450Z,9.90
2019-05-03T20:14:37.768Z,10.90
2019-05-03T20:17:08.097Z,9.23
2019-05-03T20:19:41.205Z,11.03
2019-05-03T20:22:15.029Z,9.43
2019-05-03T20:24:46.491Z,9.90
2019-05-03T20:27:16.903Z,9.97
2019-05-03T20:29:48.961Z,10.40
2019-05-03T20:32:19.772Z,11.23
2019-05-03T20:34:50.515Z,10.47
2019-05-03T20:37:21.898Z,10.47
2019-05-03T20:39:54.523Z,10.37
2019-05-03T20:42:42.492Z,10.53
2019-05-03T20:45:16.898Z,10.50
2019-05-03T20:47:51.374Z,11.37
2019-05-03T20:50:21.729Z,11.23
2019-05-03T20:52:54.966Z,10.10
2019-05-03T20:55:25.720Z,10.17
2019-05-03T20:57:56.111Z,10.33
2019-05-03T21:00:27.131Z,10.17
2019-05-03T21:02:57.599Z,10.30
2019-05-03T21:05:32.056Z,9.63
2019-05-03T21:08:05.399Z,9.90
2019-05-03T21:10:35.363Z,9.23
2019-05-03T21:13:08.506Z,10.53
2019-05-03T21:15:44.612Z,8.30
2019-05-03T21:18:49.197Z,8.53
2019-05-03T21:21:29.209Z,8.53
2019-05-03T21:24:08.184Z,9.00
2019-05-03T21:26:38.469Z,8.27
2019-05-03T21:29:11.449Z,9.03
2019-05-03T21:31:41.704Z,8.97
2019-05-03T21:34:14.636Z,8.00
2019-05-03T21:36:46.504Z,8.80
2019-05-03T21:39:16.836Z,9.57
2019-05-03T21:41:48.225Z,8.43
2019-05-03T21:44:36.047Z,8.60
2019-05-03T21:47:31.178Z,8.27
2019-05-03T21:50:02.137Z,8.73
2019-05-03T21:52:32.873Z,7.97
2019-05-03T21:55:05.351Z,8.93
2019-05-03T21:57:35.053Z,7.70
2019-05-03T22:00:06.910Z,8.90
2019-05-03T22:02:39.912Z,8.07
2019-05-03T22:05:11.680Z,8.17
2019-05-03T22:07:44.371Z,8.10
2019-05-03T22:10:15.217Z,8.67
2019-05-03T22:12:45.495Z,9.53
2019-05-03T22:15:27.089Z,8.73
2019-05-03T22:18:19.114Z,8.43
2019-05-03T22:20:55.600Z,10.70
2019-05-03T22:24:04.463Z,8.47
2019-05-03T22:26:51.486Z,9.50
2019-05-03T22:29:22.164Z,9.43
2019-05-03T22:31:54.684Z,9.83
2019-05-03T22:34:25.779Z,11.13
2019-05-03T22:36:56.276Z,11.30
2019-05-03T22:39:26.588Z,12.83
2019-05-03T22:41:56.953Z,12.07
2019-05-03T22:44:27.565Z,12.27
2019-05-03T22:47:00.445Z,12.97
2019-05-03T22:49:30.727Z,13.27
2019-05-03T22:52:01.193Z,12.83
2019-05-03T22:54:34.498Z,13.13
2019-05-03T22:57:04.999Z,10.73
2019-05-03T22:59:35.683Z,10.27
2019-05-03T23:02:07.637Z,8.10
2019-05-03T23:04:38.214Z,8.53
2019-05-03T23:07:10.778Z,7.43
2019-05-03T23:09:41.344Z,7.80
2019-05-03T23:12:12.222Z,6.40
2019-05-03T23:14:44.527Z,5.63
2019-05-03T23:17:15.053Z,4.73
2019-05-03T23:19:48.412Z,4.27
2019-05-03T23:22:25.460Z,4.73
2019-05-03T23:24:56.717Z,5.03
2019-05-03T23:27:27.348Z,5.27
2019-05-03T23:30:00.564Z,4.63
2019-05-03T23:32:31.331Z,4.97
2019-05-03T23:35:02.379Z,4.57
2019-05-03T23:37:34.604Z,4.27
2019-05-03T23:40:08.563Z,4.77
2019-05-03T23:42:39.160Z,3.73
2019-05-03T23:45:09.388Z,3.30
2019-05-03T23:47:44.986Z,3.87
2019-05-03T23:50:18.847Z,3.50
2019-05-03T23:52:49.175Z,2.93
2019-05-03T23:55:36.980Z,3.10
2019-05-03T23:58:07.496Z,2.30
